sensor_id;sensor_type;location;lat;lon;timestamp;pressure;altitude;pressure_sealevel;temperature;humidity
64243;BME280;50573;51.512;5.386;2024-01-07T00:06:18;165369.44;;;3.11;100.00
64243;BME280;50573;51.512;5.386;2024-01-07T00:16:23;165382.56;;;3.16;100.00
64243;BME280;50573;51.512;5.386;2024-01-07T00:26:26;165339.09;;;3.00;100.00
64243;BME280;50573;51.512;5.386;2024-01-07T00:36:30;165383.91;;;3.17;100.00
64243;BME280;50573;51.512;5.386;2024-01-07T00:46:33;165370.72;;;3.12;100.00
64243;BME280;50573;51.512;5.386;2024-01-07T00:56:38;165345.69;;;3.02;100.00
64243;BME280;50573;51.512;5.386;2024-01-07T01:06:41;165391.81;;;3.20;100.00
64243;BME280;50573;51.512;5.386;2024-01-07T01:16:45;165333.81;;;2.98;100.00
64243;BME280;50573;51.512;5.386;2024-01-07T01:26:48;165298.22;;;2.84;100.00
64243;BME280;50573;51.512;5.386;2024-01-07T01:36:53;165368.09;;;3.11;100.00
64243;BME280;50573;51.512;5.386;2024-01-07T01:46:56;165376.00;;;3.14;100.00
64243;BME280;50573;51.512;5.386;2024-01-07T01:57:00;165267.88;;;2.72;100.00
64243;BME280;50573;51.512;5.386;2024-01-07T02:07:03;165320.63;;;2.93;100.00
64243;BME280;50573;51.512;5.386;2024-01-07T02:17:08;165307.44;;;2.88;100.00
64243;BME280;50573;51.512;5.386;2024-01-07T02:27:12;165299.53;;;2.84;100.00
64243;BME280;50573;51.512;5.386;2024-01-07T02:37:15;165298.22;;;2.84;100.00
64243;BME280;50573;51.512;5.386;2024-01-07T02:47:20;165249.47;;;2.65;100.00
64243;BME280;50573;51.512;5.386;2024-01-07T02:57:23;165252.09;;;2.66;100.00
64243;BME280;50573;51.512;5.386;2024-01-07T03:07:27;165267.88;;;2.72;100.00
64243;BME280;50573;51.512;5.386;2024-01-07T03:17:30;165231.00;;;2.58;100.00
64243;BME280;50573;51.512;5.386;2024-01-07T03:27:35;165281.06;;;2.77;100.00
64243;BME280;50573;51.512;5.386;2024-01-07T03:37:38;165283.75;;;2.78;100.00
64243;BME280;50573;51.512;5.386;2024-01-07T03:47:42;165290.31;;;2.81;100.00
64243;BME280;50573;51.512;5.386;2024-01-07T03:57:46;165360.19;;;3.08;100.00
64243;BME280;50573;51.512;5.386;2024-01-07T04:07:50;165314.06;;;2.90;100.00
64243;BME280;50573;51.512;5.386;2024-01-07T04:17:53;165307.44;;;2.88;100.00
64243;BME280;50573;51.512;5.386;2024-01-07T04:27:58;165310.06;;;2.88;100.00
64243;BME280;50573;51.512;5.386;2024-01-07T04:38:01;165245.53;;;2.64;100.00
64243;BME280;50573;51.512;5.386;2024-01-07T04:48:06;165299.53;;;2.84;100.00
64243;BME280;50573;51.512;5.386;2024-01-07T04:58:09;165328.53;;;2.96;100.00
64243;BME280;50573;51.512;5.386;2024-01-07T05:08:13;165274.50;;;2.75;100.00
64243;BME280;50573;51.512;5.386;2024-01-07T05:18:16;165213.88;;;2.52;100.00
64243;BME280;50573;51.512;5.386;2024-01-07T05:28:21;165286.34;;;2.79;100.00
64243;BME280;50573;51.512;5.386;2024-01-07T05:38:24;165296.94;;;2.83;100.00
64243;BME280;50573;51.512;5.386;2024-01-07T05:48:40;165315.34;;;2.91;100.00
64243;BME280;50573;51.512;5.386;2024-01-07T05:58:44;165265.28;;;2.71;100.00
64243;BME280;50573;51.512;5.386;2024-01-07T06:08:48;165273.16;;;2.74;100.00
64243;BME280;50573;51.512;5.386;2024-01-07T06:18:51;165290.31;;;2.81;100.00
64243;BME280;50573;51.512;5.386;2024-01-07T06:28:55;165220.47;;;2.54;100.00
64243;BME280;50573;51.512;5.386;2024-01-07T06:38:58;165245.53;;;2.64;100.00
64243;BME280;50573;51.512;5.386;2024-01-07T06:49:03;165232.34;;;2.59;100.00
64243;BME280;50573;51.512;5.386;2024-01-07T06:59:06;165145.34;;;2.26;100.00
64243;BME280;50573;51.512;5.386;2024-01-07T07:09:10;165223.09;;;2.55;100.00
64243;BME280;50573;51.512;5.386;2024-01-07T07:19:14;165217.81;;;2.53;100.00
64243;BME280;50573;51.512;5.386;2024-01-07T07:29:19;165241.56;;;2.62;100.00
64243;BME280;50573;51.512;5.386;2024-01-07T07:39:22;165167.75;;;2.34;100.00
64243;BME280;50573;51.512;5.386;2024-01-07T07:49:27;165215.19;;;2.52;100.00
64243;BME280;50573;51.512;5.386;2024-01-07T07:59:30;165128.22;;;2.19;100.00
64243;BME280;50573;51.512;5.386;2024-01-07T08:09:34;165062.34;;;1.94;100.00
64243;BME280;50573;51.512;5.386;2024-01-07T08:19:38;165132.16;;;2.21;100.00
64243;BME280;50573;51.512;5.386;2024-01-07T08:29:43;165178.28;;;2.38;100.00
64243;BME280;50573;51.512;5.386;2024-01-07T08:39:46;165075.53;;;1.99;100.00
64243;BME280;50573;51.512;5.386;2024-01-07T08:49:51;165133.50;;;2.21;100.00
64243;BME280;50573;51.512;5.386;2024-01-07T08:59:55;165088.72;;;2.04;100.00
64243;BME280;50573;51.512;5.386;2024-01-07T09:10:00;165093.94;;;2.06;100.00
64243;BME280;50573;51.512;5.386;2024-01-07T09:20:03;165154.56;;;2.29;100.00
64243;BME280;50573;51.512;5.386;2024-01-07T09:30:11;165086.06;;;2.03;100.00
64243;BME280;50573;51.512;5.386;2024-01-07T09:40:17;165142.72;;;2.25;100.00
64243;BME280;50573;51.512;5.386;2024-01-07T09:50:23;165126.94;;;2.19;100.00
64243;BME280;50573;51.512;5.386;2024-01-07T10:00:26;165093.94;;;2.06;100.00
64243;BME280;50573;51.512;5.386;2024-01-07T10:10:32;165050.47;;;1.90;100.00
64243;BME280;50573;51.512;5.386;2024-01-07T10:20:37;165018.88;;;1.78;100.00
64243;BME280;50573;51.512;5.386;2024-01-07T10:30:49;165100.56;;;2.09;100.00
64243;BME280;50573;51.512;5.386;2024-01-07T10:40:55;165120.31;;;2.16;100.00
64243;BME280;50573;51.512;5.386;2024-01-07T10:51:03;165075.53;;;1.99;100.00
64243;BME280;50573;51.512;5.386;2024-01-07T11:01:06;165028.09;;;1.81;100.00
64243;BME280;50573;51.512;5.386;2024-01-07T11:11:15;165136.09;;;2.22;100.00
64243;BME280;50573;51.512;5.386;2024-01-07T11:21:20;165183.56;;;2.40;100.00
64243;BME280;50573;51.512;5.386;2024-01-07T11:31:45;165120.31;;;2.16;100.00
64243;BME280;50573;51.512;5.386;2024-01-07T11:41:50;165108.47;;;2.12;100.00
64243;BME280;50573;51.512;5.386;2024-01-07T11:51:54;165117.69;;;2.15;100.00
64243;BME280;50573;51.512;5.386;2024-01-07T12:01:59;165209.91;;;2.50;100.00
64243;BME280;50573;51.512;5.386;2024-01-07T12:12:05;165227.03;;;2.57;100.00
64243;BME280;50573;51.512;5.386;2024-01-07T12:22:09;165195.41;;;2.45;100.00
64243;BME280;50573;51.512;5.386;2024-01-07T12:32:15;165200.69;;;2.47;100.00
64243;BME280;50573;51.512;5.386;2024-01-07T12:42:18;165183.56;;;2.40;100.00
64243;BME280;50573;51.512;5.386;2024-01-07T12:52:24;165170.38;;;2.35;100.00
64243;BME280;50573;51.512;5.386;2024-01-07T13:02:29;165070.25;;;1.97;100.00
64243;BME280;50573;51.512;5.386;2024-01-07T13:12:33;165042.56;;;1.87;100.00
64243;BME280;50573;51.512;5.386;2024-01-07T13:22:48;165137.44;;;2.23;100.00
64243;BME280;50573;51.512;5.386;2024-01-07T13:32:52;165087.38;;;2.04;100.00
64243;BME280;50573;51.512;5.386;2024-01-07T13:42:59;165033.38;;;1.83;100.00
64243;BME280;50573;51.512;5.386;2024-01-07T13:53:04;165104.50;;;2.10;100.00
64243;BME280;50573;51.512;5.386;2024-01-07T14:03:07;165100.56;;;2.09;100.00
64243;BME280;50573;51.512;5.386;2024-01-07T14:13:11;165079.50;;;2.01;100.00
64243;BME280;50573;51.512;5.386;2024-01-07T14:23:14;165072.88;;;1.98;100.00
64243;BME280;50573;51.512;5.386;2024-01-07T14:33:18;165096.63;;;2.07;100.00
64243;BME280;50573;51.512;5.386;2024-01-07T14:43:21;165010.97;;;1.75;100.00
64243;BME280;50573;51.512;5.386;2024-01-07T14:53:26;164909.59;;;1.36;100.00
64243;BME280;50573;51.512;5.386;2024-01-07T15:03:30;164850.34;;;1.13;100.00
64243;BME280;50573;51.512;5.386;2024-01-07T15:13:34;164851.63;;;1.14;100.00
64243;BME280;50573;51.512;5.386;2024-01-07T15:23:39;164826.63;;;1.04;100.00
64243;BME280;50573;51.512;5.386;2024-01-07T15:33:43;164737.09;;;0.70;100.00
64243;BME280;50573;51.512;5.386;2024-01-07T15:43:46;164748.94;;;0.75;100.00
64243;BME280;50573;51.512;5.386;2024-01-07T15:53:51;164746.31;;;0.74;100.00
64243;BME280;50573;51.512;5.386;2024-01-07T16:03:54;164762.09;;;0.80;100.00
64243;BME280;50573;51.512;5.386;2024-01-07T16:13:58;164729.22;;;0.67;100.00
64243;BME280;50573;51.512;5.386;2024-01-07T16:24:01;164706.81;;;0.59;100.00
64243;BME280;50573;51.512;5.386;2024-01-07T16:34:06;164691.03;;;0.53;100.00
64243;BME280;50573;51.512;5.386;2024-01-07T16:44:09;164651.56;;;0.38;100.00
64243;BME280;50573;51.512;5.386;2024-01-07T16:54:13;164595.03;;;0.16;100.00
64243;BME280;50573;51.512;5.386;2024-01-07T17:04:16;164646.34;;;0.36;100.00
64243;BME280;50573;51.512;5.386;2024-01-07T17:14:20;164656.81;;;0.40;100.00
64243;BME280;50573;51.512;5.386;2024-01-07T17:24:23;164659.44;;;0.41;100.00
64243;BME280;50573;51.512;5.386;2024-01-07T17:34:28;164634.44;;;0.31;100.00
64243;BME280;50573;51.512;5.386;2024-01-07T17:44:30;164620.00;;;0.26;100.00
64243;BME280;50573;51.512;5.386;2024-01-07T17:54:35;164610.78;;;0.22;100.00
64243;BME280;50573;51.512;5.386;2024-01-07T18:04:40;164596.28;;;0.17;100.00
64243;BME280;50573;51.512;5.386;2024-01-07T18:14:44;164556.88;;;0.02;100.00
64243;BME280;50573;51.512;5.386;2024-01-07T18:24:47;164545.00;;;-0.03;100.00
64243;BME280;50573;51.512;5.386;2024-01-07T18:34:52;164531.81;;;-0.08;100.00
64243;BME280;50573;51.512;5.386;2024-01-07T18:44:55;164495.03;;;-0.22;100.00
64243;BME280;50573;51.512;5.386;2024-01-07T18:54:59;164535.81;;;-0.07;100.00
64243;BME280;50573;51.512;5.386;2024-01-07T19:05:04;164554.19;;;0.00;100.00
64243;BME280;50573;51.512;5.386;2024-01-07T19:15:10;164564.75;;;0.05;100.00
64243;BME280;50573;51.512;5.386;2024-01-07T19:25:13;164518.72;;;-0.13;100.00
64243;BME280;50573;51.512;5.386;2024-01-07T19:35:18;164493.69;;;-0.23;100.00
64243;BME280;50573;51.512;5.386;2024-01-07T19:45:21;164483.19;;;-0.27;100.00
64243;BME280;50573;51.512;5.386;2024-01-07T19:55:31;164471.38;;;-0.31;100.00
64243;BME280;50573;51.512;5.386;2024-01-07T20:05:33;164443.72;;;-0.42;100.00
64243;BME280;50573;51.512;5.386;2024-01-07T20:15:38;164420.06;;;-0.51;100.00
64243;BME280;50573;51.512;5.386;2024-01-07T20:25:43;164400.31;;;-0.58;100.00
64243;BME280;50573;51.512;5.386;2024-01-07T20:35:49;164401.66;;;-0.58;100.00
64243;BME280;50573;51.512;5.386;2024-01-07T20:45:56;164424.03;;;-0.49;100.00
64243;BME280;50573;51.512;5.386;2024-01-07T20:56:00;164363.53;;;-0.72;100.00
64243;BME280;50573;51.512;5.386;2024-01-07T21:06:04;164384.56;;;-0.64;100.00
64243;BME280;50573;51.512;5.386;2024-01-07T21:16:08;164389.84;;;-0.62;100.00
64243;BME280;50573;51.512;5.386;2024-01-07T21:26:11;164358.25;;;-0.74;100.00
64243;BME280;50573;51.512;5.386;2024-01-07T21:36:16;164343.81;;;-0.80;100.00
64243;BME280;50573;51.512;5.386;2024-01-07T21:46:19;164366.13;;;-0.71;100.00
64243;BME280;50573;51.512;5.386;2024-01-07T21:56:23;164293.84;;;-0.99;100.00
64243;BME280;50573;51.512;5.386;2024-01-07T22:06:26;164326.72;;;-0.86;100.00
64243;BME280;50573;51.512;5.386;2024-01-07T22:16:31;164317.53;;;-0.90;100.00
64243;BME280;50573;51.512;5.386;2024-01-07T22:26:34;164363.53;;;-0.72;100.00
64243;BME280;50573;51.512;5.386;2024-01-07T22:36:39;164378.00;;;-0.67;100.00
64243;BME280;50573;51.512;5.386;2024-01-07T22:46:44;164445.06;;;-0.41;100.00
64243;BME280;50573;51.512;5.386;2024-01-07T22:56:49;164454.28;;;-0.38;100.00
64243;BME280;50573;51.512;5.386;2024-01-07T23:06:53;164429.28;;;-0.47;100.00
64243;BME280;50573;51.512;5.386;2024-01-07T23:16:57;164396.38;;;-0.60;100.00
64243;BME280;50573;51.512;5.386;2024-01-07T23:27:00;164404.25;;;-0.57;100.00
64243;BME280;50573;51.512;5.386;2024-01-07T23:37:05;164406.91;;;-0.56;100.00
64243;BME280;50573;51.512;5.386;2024-01-07T23:47:08;164406.91;;;-0.56;100.00
64243;BME280;50573;51.512;5.386;2024-01-07T23:57:12;164304.38;;;-0.95;100.00
